LFRV/VNE METAR and TAF weather

Enter ICAO airport designator
Station Type Date Time Source
LFRV METAR 2021/10/24 22:30 UTC NOAA

LFRV 242230Z AUTO 16003KT 0600 +RA FG VV/// ///CB 13/13 Q1018


Station Type Date Time Source
LFRV Decoded METAR 2021/10/24 22:30 UTC NOAA

Station name not available
Oct 24, 2021 - 06:30 PM EDT / 2021.10.24 2230 UTC
Wind: from the SSE (160 degrees) at 3 MPH (3 KT):0
Visibility: less than 1 mile:0
Sky conditions: obscured
Weather: heavy rain; fog; Cumulonimbus clouds observed
Temperature: 55 F (13 C)
Dew Point: 55 F (13 C)
Relative Humidity: 100%
Pressure (altimeter): 30.06 in. Hg (1018 hPa)
ob: LFRV 242230Z AUTO 16003KT 0600 +RA FG VV/// ///CB 13/13 Q1018
cycle: 22

Station Type Date Time Source
LFRV TAF UTC NOAA

Error!

Example: see airport list